Clinton, Utah
Current Conditions -  °F | °C
As of 7:58 PM on Saturday 25 Oct 2014 (Local Time) from KHIF Reporting Station
Scattered Clouds Scattered Clouds  
Wind Chill: 69°   Ceiling: Unl
Heat Index: 69°   Visibility: 10mi
Dew Point: 35°   Wind: 20mph
Humidity: 29%   Direction: 180°S
Pressure: 29.9"   Gusts: 25mph
Location:  41.123°N, 112.063°W
Report Text: KHIF 260158Z AUTO 18017G22KT 10SM SCT220 20/02 A2990 RMK AO2 SLP083 T02040015
Loading
Personal Weather Stations






























Interactive Weather Map
Tropical Storm Tracking
New forecast layout! Learn more

10-Day Weather Forecast

Advertisements
Track Severe Weather on mobile